Aviation Digital Data Service (ADDS)

Output produced by METARs form (0147 UTC 20 October 2017)
found at http://aviationweather.gov/adds/metars/
 
KMPV 192337Z 2000/2024 23010G16KT P6SM SCT150 
     FM200400 27008KT P6SM FEW080 
     FM200800 30004KT P6SM SKC 
     FM201700 32008KT P6SM SKC